createdAt,value
2023-05-10T00:02:01.657Z,1.00
2023-05-10T00:04:32.316Z,1.50
2023-05-10T00:07:02.986Z,1.40
2023-05-10T00:09:33.327Z,1.30
2023-05-10T00:12:03.582Z,1.60
2023-05-10T00:14:34.264Z,1.30
2023-05-10T00:17:04.477Z,0.80
2023-05-10T00:19:34.748Z,1.20
2023-05-10T00:22:05.089Z,1.00
2023-05-10T00:24:35.361Z,0.90
2023-05-10T00:27:06.212Z,1.20
2023-05-10T00:29:36.572Z,0.90
2023-05-10T00:32:10.723Z,0.90
2023-05-10T00:34:41.322Z,1.20
2023-05-10T00:37:11.680Z,1.40
2023-05-10T00:39:42.289Z,1.10
2023-05-10T00:42:12.897Z,1.30
2023-05-10T00:44:43.127Z,0.90
2023-05-10T00:47:13.605Z,1.00
2023-05-10T00:49:44.253Z,1.10
2023-05-10T00:52:14.527Z,1.10
2023-05-10T00:54:45.008Z,1.00
2023-05-10T00:57:15.623Z,1.00
2023-05-10T00:59:46.338Z,1.00
2023-05-10T01:02:17.397Z,1.20
2023-05-10T01:04:48.436Z,1.40
2023-05-10T01:07:18.976Z,0.90
2023-05-10T01:09:49.638Z,1.30
2023-05-10T01:12:20.276Z,1.10
2023-05-10T01:14:50.886Z,1.00
2023-05-10T01:17:21.879Z,1.20
2023-05-10T01:19:52.285Z,0.90
2023-05-10T01:22:45.367Z,0.90
2023-05-10T01:25:28.467Z,1.40
2023-05-10T01:28:16.276Z,1.20
2023-05-10T01:31:13.326Z,1.40
2023-05-10T01:33:49.941Z,1.60
2023-05-10T01:36:27.869Z,1.10
2023-05-10T01:39:04.595Z,1.50
2023-05-10T01:44:14.638Z,1.60
2023-05-10T01:49:20.769Z,1.40
2023-05-10T01:51:55.828Z,2.10
2023-05-10T01:54:27.390Z,1.60
2023-05-10T01:57:04.220Z,1.50
2023-05-10T02:02:08.777Z,1.70
2023-05-10T02:04:40.482Z,1.80
2023-05-10T02:07:12.412Z,1.70
2023-05-10T02:09:43.801Z,1.70
2023-05-10T02:12:16.217Z,1.30
2023-05-10T02:14:48.473Z,1.50
2023-05-10T02:17:20.729Z,1.50
2023-05-10T02:19:51.226Z,1.70
2023-05-10T02:22:22.297Z,1.70
2023-05-10T02:24:53.184Z,1.60
2023-05-10T02:27:24.004Z,1.40
2023-05-10T02:29:55.133Z,1.90
2023-05-10T02:32:26.925Z,1.50
2023-05-10T02:34:57.621Z,2.20
2023-05-10T02:37:28.571Z,1.50
2023-05-10T02:39:59.705Z,2.10
2023-05-10T02:42:30.756Z,1.50
2023-05-10T02:45:04.460Z,2.20
2023-05-10T02:47:35.028Z,2.00
2023-05-10T02:50:06.272Z,1.00
2023-05-10T02:52:42.173Z,1.90
2023-05-10T02:55:15.803Z,1.40
2023-05-10T02:57:49.789Z,1.50
2023-05-10T03:00:20.627Z,1.10
2023-05-10T03:02:51.406Z,1.20
2023-05-10T03:05:23.033Z,1.10
2023-05-10T03:07:53.666Z,1.20
2023-05-10T03:10:26.418Z,1.10
2023-05-10T03:13:08.827Z,1.40
2023-05-10T03:15:49.899Z,1.10
2023-05-10T03:18:23.428Z,1.20
2023-05-10T03:20:58.508Z,0.80
2023-05-10T03:23:32.551Z,1.10
2023-05-10T03:26:03.317Z,1.00
2023-05-10T03:28:34.830Z,0.60
2023-05-10T03:31:05.532Z,0.60
2023-05-10T03:33:36.178Z,0.50
2023-05-10T03:36:08.366Z,0.60
2023-05-10T03:38:38.906Z,0.80
2023-05-10T03:41:09.181Z,0.60
2023-05-10T03:43:39.589Z,0.90
2023-05-10T03:46:10.332Z,0.60
2023-05-10T03:48:40.553Z,1.50
2023-05-10T03:51:10.999Z,0.90
2023-05-10T03:53:41.652Z,0.90
2023-05-10T03:56:14.381Z,0.80
2023-05-10T03:58:44.794Z,0.70
2023-05-10T04:01:16.716Z,1.10
2023-05-10T04:03:47.728Z,1.00
2023-05-10T04:06:18.206Z,0.50
2023-05-10T04:08:48.936Z,0.40
2023-05-10T04:11:19.077Z,1.80
2023-05-10T04:13:49.511Z,0.90
2023-05-10T04:16:19.996Z,0.80
2023-05-10T04:18:50.324Z,1.60
2023-05-10T04:21:20.505Z,1.10
2023-05-10T04:23:50.753Z,0.90
2023-05-10T04:26:21.115Z,0.90
2023-05-10T04:28:52.049Z,0.80
2023-05-10T04:31:22.463Z,0.50
2023-05-10T04:33:53.075Z,0.90
2023-05-10T04:36:23.352Z,1.20
2023-05-10T04:38:54.051Z,1.20
2023-05-10T04:41:24.964Z,1.10
2023-05-10T04:43:55.221Z,0.50
2023-05-10T04:46:25.683Z,0.50
2023-05-10T04:48:56.015Z,0.60
2023-05-10T04:51:26.638Z,2.10
2023-05-10T04:54:06.214Z,0.80
2023-05-10T04:56:37.723Z,0.60
2023-05-10T04:59:07.914Z,0.80
2023-05-10T05:01:38.407Z,0.50
2023-05-10T05:04:08.896Z,0.50
2023-05-10T05:06:39.176Z,0.40
2023-05-10T05:09:10.902Z,1.00
2023-05-10T05:11:41.370Z,0.60
2023-05-10T05:14:12.434Z,0.40
2023-05-10T05:16:43.243Z,0.60
2023-05-10T05:19:13.948Z,0.70
2023-05-10T05:21:44.252Z,1.90
2023-05-10T05:24:14.656Z,0.60
2023-05-10T05:26:45.592Z,0.50
2023-05-10T05:29:17.267Z,0.80
2023-05-10T05:31:49.966Z,0.50
2023-05-10T05:34:22.208Z,0.40
2023-05-10T05:36:52.447Z,0.70
2023-05-10T05:39:23.474Z,0.30
2023-05-10T05:41:54.060Z,0.40
2023-05-10T05:44:24.474Z,0.30
2023-05-10T05:46:58.722Z,0.30
2023-05-10T05:49:32.184Z,0.40
2023-05-10T05:52:03.054Z,0.40
2023-05-10T05:54:33.784Z,0.30
2023-05-10T05:57:04.136Z,0.50
2023-05-10T05:59:34.496Z,0.40
2023-05-10T06:02:05.244Z,0.30
2023-05-10T06:04:35.922Z,0.30
2023-05-10T06:07:06.637Z,0.60
2023-05-10T06:09:37.249Z,0.40
2023-05-10T06:12:07.937Z,0.40
2023-05-10T06:14:38.173Z,0.20
2023-05-10T06:17:09.059Z,0.30
2023-05-10T06:19:39.771Z,0.50
2023-05-10T06:22:10.313Z,0.50
2023-05-10T06:24:40.693Z,0.70
2023-05-10T06:27:11.008Z,0.40
2023-05-10T06:29:41.110Z,0.40
2023-05-10T06:32:11.310Z,0.70
2023-05-10T06:34:41.722Z,0.80
2023-05-10T06:37:12.071Z,0.50
2023-05-10T06:39:42.345Z,0.90
2023-05-10T06:42:12.781Z,0.30
2023-05-10T06:44:44.242Z,0.60
2023-05-10T06:47:14.498Z,0.40
2023-05-10T06:49:44.983Z,0.50
2023-05-10T06:52:15.400Z,0.50
2023-05-10T06:54:45.845Z,1.00
2023-05-10T06:57:27.718Z,0.90
2023-05-10T07:00:01.761Z,0.70
2023-05-10T07:02:32.689Z,0.90
2023-05-10T07:05:06.119Z,1.10
2023-05-10T07:07:39.197Z,0.60
2023-05-10T07:10:11.980Z,0.90
2023-05-10T07:12:42.569Z,1.90
2023-05-10T07:15:13.727Z,0.90
2023-05-10T07:17:45.902Z,0.90
2023-05-10T07:20:16.874Z,0.80
2023-05-10T07:22:47.211Z,1.00
2023-05-10T07:25:17.827Z,1.00
2023-05-10T07:27:49.188Z,0.70
2023-05-10T07:30:19.903Z,0.60
2023-05-10T07:32:50.217Z,0.70
2023-05-10T07:35:20.972Z,0.90
2023-05-10T07:37:51.133Z,0.90
2023-05-10T07:40:22.040Z,1.00
2023-05-10T07:42:52.612Z,1.20
2023-05-10T07:45:24.000Z,1.50
2023-05-10T07:47:54.834Z,1.20
2023-05-10T07:50:25.339Z,1.80
2023-05-10T07:52:56.170Z,1.90
2023-05-10T07:55:26.914Z,2.00
2023-05-10T07:57:57.146Z,2.10
2023-05-10T08:00:27.309Z,1.50
2023-05-10T08:02:57.611Z,2.20
2023-05-10T08:05:28.269Z,1.90
2023-05-10T08:08:00.185Z,1.80
2023-05-10T08:10:30.743Z,2.10
2023-05-10T08:13:01.382Z,2.70
2023-05-10T08:15:31.531Z,2.30
2023-05-10T08:18:01.996Z,2.90
2023-05-10T08:20:32.838Z,2.80
2023-05-10T08:23:03.216Z,2.50
2023-05-10T08:25:33.878Z,2.40
2023-05-10T08:28:04.753Z,3.00
2023-05-10T08:30:35.023Z,2.70
2023-05-10T08:33:05.904Z,2.60
2023-05-10T08:35:36.459Z,2.50
2023-05-10T08:38:06.665Z,3.00
2023-05-10T08:40:37.725Z,2.70
2023-05-10T08:43:10.575Z,2.20
2023-05-10T08:45:42.712Z,2.70
2023-05-10T08:48:13.486Z,2.80
2023-05-10T08:50:44.228Z,2.70
2023-05-10T08:53:15.299Z,1.90
2023-05-10T08:55:45.742Z,2.30
2023-05-10T08:58:16.368Z,2.50
2023-05-10T09:00:46.892Z,2.30
2023-05-10T09:03:17.148Z,2.50
2023-05-10T09:05:47.522Z,2.50
2023-05-10T09:08:18.111Z,3.20
2023-05-10T09:10:48.620Z,2.20
2023-05-10T09:13:19.943Z,2.50
2023-05-10T09:15:51.195Z,2.10
2023-05-10T09:18:21.698Z,2.90
2023-05-10T09:20:52.030Z,2.40
2023-05-10T09:23:23.004Z,3.00
2023-05-10T09:26:06.901Z,2.40
2023-05-10T09:28:51.337Z,3.10
2023-05-10T09:31:21.816Z,2.60
2023-05-10T09:33:53.169Z,1.90
2023-05-10T09:36:23.487Z,2.80
2023-05-10T09:38:56.925Z,2.30
2023-05-10T09:41:27.448Z,2.30
2023-05-10T09:43:59.118Z,2.10
2023-05-10T09:46:29.416Z,2.00
2023-05-10T09:48:59.783Z,2.30
2023-05-10T09:51:30.323Z,2.40
2023-05-10T09:54:13.265Z,2.70
2023-05-10T09:56:43.913Z,1.80
2023-05-10T09:59:14.643Z,1.90
2023-05-10T10:01:46.325Z,2.70
2023-05-10T10:04:17.244Z,2.60
2023-05-10T10:06:48.159Z,2.30
2023-05-10T10:09:19.382Z,3.10
2023-05-10T10:11:49.589Z,1.90
2023-05-10T10:14:22.057Z,2.20
2023-05-10T10:17:06.644Z,2.20
2023-05-10T10:19:40.826Z,1.90
2023-05-10T10:22:12.629Z,2.40
2023-05-10T10:24:43.674Z,2.00
2023-05-10T10:27:21.622Z,1.40
2023-05-10T10:30:02.230Z,1.70
2023-05-10T10:32:49.899Z,1.90
2023-05-10T10:35:20.469Z,1.70
2023-05-10T10:37:52.821Z,1.50
2023-05-10T10:40:31.889Z,2.10
2023-05-10T10:43:25.596Z,2.10
2023-05-10T10:46:15.913Z,2.20
2023-05-10T10:48:52.402Z,2.30
2023-05-10T10:51:22.746Z,1.80
2023-05-10T10:53:52.970Z,1.70
2023-05-10T10:56:25.021Z,1.90
2023-05-10T10:58:57.951Z,1.70
2023-05-10T11:01:35.909Z,1.40
2023-05-10T11:04:21.666Z,1.60
2023-05-10T11:06:52.080Z,1.80
2023-05-10T11:09:27.487Z,1.90
2023-05-10T11:11:59.133Z,1.60
2023-05-10T11:14:29.322Z,1.40
2023-05-10T11:16:59.514Z,2.00
2023-05-10T11:19:31.282Z,1.90
2023-05-10T11:22:15.800Z,2.20
2023-05-10T11:24:59.673Z,2.10
2023-05-10T11:27:29.951Z,1.50
2023-05-10T11:30:00.313Z,2.70
2023-05-10T11:32:30.795Z,2.70
2023-05-10T11:35:01.103Z,4.10
2023-05-10T11:37:35.172Z,3.40
2023-05-10T11:40:06.650Z,2.30
2023-05-10T11:42:36.960Z,2.40
2023-05-10T11:45:09.810Z,2.40
2023-05-10T11:47:42.637Z,5.20
2023-05-10T11:50:15.429Z,4.00
2023-05-10T11:52:46.493Z,2.80
2023-05-10T11:55:16.719Z,2.10
2023-05-10T11:57:47.367Z,1.60
2023-05-10T12:00:18.503Z,1.30
2023-05-10T12:02:51.668Z,1.80
2023-05-10T12:05:23.245Z,1.60
2023-05-10T12:07:53.489Z,1.80
2023-05-10T12:10:28.752Z,1.80
2023-05-10T12:12:59.458Z,1.40
2023-05-10T12:15:30.929Z,1.80
2023-05-10T12:18:02.038Z,2.00
2023-05-10T12:20:32.645Z,1.50
2023-05-10T12:23:04.620Z,2.00
2023-05-10T12:25:36.647Z,1.40
2023-05-10T12:28:09.229Z,1.00
2023-05-10T12:30:39.882Z,1.40
2023-05-10T12:33:15.407Z,1.50
2023-05-10T12:35:50.166Z,1.50
2023-05-10T12:38:31.939Z,1.20
2023-05-10T12:41:04.382Z,1.70
2023-05-10T12:43:35.047Z,1.10
2023-05-10T12:46:10.240Z,1.60
2023-05-10T12:48:41.803Z,1.80
2023-05-10T12:51:14.041Z,2.10
2023-05-10T12:53:48.734Z,1.40
2023-05-10T12:56:19.798Z,1.30
2023-05-10T12:58:49.963Z,1.90
2023-05-10T13:01:20.362Z,2.30
2023-05-10T13:03:51.316Z,1.40
2023-05-10T13:06:21.501Z,2.20
2023-05-10T13:08:52.486Z,1.80
2023-05-10T13:11:23.071Z,1.70
2023-05-10T13:13:53.336Z,2.10
2023-05-10T13:16:24.293Z,1.60
2023-05-10T13:18:55.683Z,1.80
2023-05-10T13:21:27.791Z,2.30
2023-05-10T13:23:59.507Z,2.70
2023-05-10T13:26:31.238Z,1.80
2023-05-10T13:29:01.718Z,1.80
2023-05-10T13:31:32.038Z,1.90
2023-05-10T13:34:02.413Z,2.20
2023-05-10T13:36:34.356Z,2.90
2023-05-10T13:39:05.992Z,3.20
2023-05-10T13:41:42.526Z,1.40
2023-05-10T13:44:15.896Z,2.30
2023-05-10T13:46:52.634Z,2.00
2023-05-10T13:49:30.553Z,2.30
2023-05-10T13:52:37.212Z,2.20
2023-05-10T13:55:08.724Z,2.10
2023-05-10T13:57:51.818Z,2.40
2023-05-10T14:00:32.876Z,1.70
2023-05-10T14:03:17.123Z,1.70
2023-05-10T14:05:52.301Z,1.40
2023-05-10T14:08:23.248Z,2.40
2023-05-10T14:11:08.200Z,3.90
2023-05-10T14:13:42.481Z,2.70
2023-05-10T14:16:25.412Z,1.80
2023-05-10T14:18:56.948Z,2.00
2023-05-10T14:21:28.724Z,2.80
2023-05-10T14:23:58.926Z,2.60
2023-05-10T14:26:29.643Z,2.20
2023-05-10T14:29:00.121Z,2.10
2023-05-10T14:31:31.799Z,2.90
2023-05-10T14:34:02.417Z,3.50
2023-05-10T14:36:33.015Z,3.20
2023-05-10T14:39:03.993Z,2.80
2023-05-10T14:41:36.638Z,2.50
2023-05-10T14:44:07.325Z,2.30
2023-05-10T14:46:37.502Z,2.60
2023-05-10T14:49:08.757Z,2.50
2023-05-10T14:51:39.073Z,2.40
2023-05-10T14:56:56.841Z,1.90
2023-05-10T14:59:30.194Z,1.80
2023-05-10T15:02:01.247Z,2.10
2023-05-10T15:05:03.346Z,1.90
2023-05-10T15:07:34.768Z,2.10
2023-05-10T15:10:06.715Z,2.90
2023-05-10T15:12:37.029Z,3.00
2023-05-10T15:15:10.682Z,3.10
2023-05-10T15:17:42.478Z,3.60
2023-05-10T15:20:17.759Z,3.10
2023-05-10T15:22:54.399Z,2.80
2023-05-10T15:28:13.501Z,2.80
2023-05-10T15:30:45.882Z,2.90
2023-05-10T15:33:18.186Z,1.50
2023-05-10T15:35:48.955Z,1.80
2023-05-10T15:38:19.598Z,2.30
2023-05-10T15:40:50.205Z,2.20
2023-05-10T15:43:21.879Z,2.20
2023-05-10T15:45:52.393Z,3.10
2023-05-10T15:48:23.836Z,3.50
2023-05-10T15:50:54.143Z,3.10
2023-05-10T15:53:28.288Z,2.80
2023-05-10T15:56:00.383Z,3.30
2023-05-10T15:58:33.854Z,2.60
2023-05-10T16:01:08.959Z,2.50
2023-05-10T16:03:40.008Z,2.80
2023-05-10T16:06:11.114Z,2.30
2023-05-10T16:08:46.367Z,2.50
2023-05-10T16:11:16.737Z,2.50
2023-05-10T16:13:49.678Z,1.90
2023-05-10T16:16:20.030Z,1.90
2023-05-10T16:18:51.305Z,3.00
2023-05-10T16:21:24.318Z,2.00
2023-05-10T16:23:54.845Z,3.00
2023-05-10T16:26:25.392Z,6.40
2023-05-10T16:28:55.870Z,2.50
2023-05-10T16:31:26.217Z,2.40
2023-05-10T16:33:56.989Z,1.90
2023-05-10T16:36:27.533Z,2.30
2023-05-10T16:38:58.221Z,2.10
2023-05-10T16:41:29.007Z,2.30
2023-05-10T16:43:59.271Z,3.60
2023-05-10T16:46:29.680Z,2.90
2023-05-10T16:49:00.585Z,3.10
2023-05-10T16:51:31.371Z,2.70
2023-05-10T16:54:02.441Z,4.00
2023-05-10T16:56:33.281Z,3.60
2023-05-10T16:59:05.791Z,1.80
2023-05-10T17:01:37.449Z,3.10
2023-05-10T17:04:07.772Z,3.10
2023-05-10T17:06:38.380Z,3.00
2023-05-10T17:09:09.020Z,2.90
2023-05-10T17:11:39.494Z,2.70
2023-05-10T17:14:10.298Z,2.50
2023-05-10T17:16:40.693Z,3.10
2023-05-10T17:19:11.270Z,2.60
2023-05-10T17:21:41.854Z,2.50
2023-05-10T17:24:12.703Z,3.50
2023-05-10T17:26:42.946Z,2.50
2023-05-10T17:29:13.823Z,2.90
2023-05-10T17:31:44.427Z,3.00
2023-05-10T17:34:16.055Z,2.40
2023-05-10T17:36:46.587Z,2.30
2023-05-10T17:39:16.745Z,1.80
2023-05-10T17:41:47.028Z,2.20
2023-05-10T17:44:17.283Z,2.40
2023-05-10T17:46:48.044Z,2.20
2023-05-10T17:49:18.408Z,2.00
2023-05-10T17:51:48.693Z,2.20
2023-05-10T17:54:18.766Z,1.80
2023-05-10T17:56:49.486Z,2.20
2023-05-10T17:59:20.118Z,1.80
2023-05-10T18:01:50.374Z,1.60
2023-05-10T18:04:20.946Z,1.50
2023-05-10T18:06:51.368Z,1.70
2023-05-10T18:09:24.143Z,1.50
2023-05-10T18:11:54.810Z,1.80
2023-05-10T18:14:36.536Z,2.40
2023-05-10T18:17:10.262Z,2.50
2023-05-10T18:19:41.134Z,1.50
2023-05-10T18:22:12.491Z,1.80
2023-05-10T18:24:46.685Z,2.00
2023-05-10T18:27:17.597Z,2.50
2023-05-10T18:29:48.237Z,1.70
2023-05-10T18:32:18.692Z,1.60
2023-05-10T18:34:49.088Z,1.70
2023-05-10T18:37:20.001Z,2.20
2023-05-10T18:39:50.433Z,2.70
2023-05-10T18:42:27.488Z,1.70
2023-05-10T18:44:58.698Z,1.40
2023-05-10T18:47:31.101Z,2.30
2023-05-10T18:50:06.042Z,2.00
2023-05-10T18:52:37.566Z,1.60
2023-05-10T18:55:10.133Z,1.00
2023-05-10T18:57:41.777Z,1.70
2023-05-10T19:00:14.360Z,1.60
2023-05-10T19:02:46.424Z,1.50
2023-05-10T19:05:20.023Z,1.20
2023-05-10T19:07:57.111Z,2.10
2023-05-10T19:10:32.502Z,1.30
2023-05-10T19:13:03.836Z,1.60
2023-05-10T19:15:34.519Z,1.30
2023-05-10T19:18:07.974Z,1.40
2023-05-10T19:20:40.859Z,1.40
2023-05-10T19:23:17.266Z,1.50
2023-05-10T19:25:47.888Z,1.50
2023-05-10T19:28:30.432Z,0.70
2023-05-10T19:31:10.939Z,0.90
2023-05-10T19:33:41.701Z,1.80
2023-05-10T19:36:15.485Z,0.70
2023-05-10T19:38:53.710Z,1.60
2023-05-10T19:41:28.195Z,0.90
2023-05-10T19:44:01.390Z,1.10
2023-05-10T19:46:34.722Z,1.20
2023-05-10T19:49:07.668Z,1.30
2023-05-10T19:51:43.542Z,1.20
2023-05-10T19:54:25.422Z,1.10
2023-05-10T19:57:01.575Z,1.50
2023-05-10T19:59:37.355Z,0.90
2023-05-10T20:02:10.668Z,1.40
2023-05-10T20:04:44.579Z,1.40
2023-05-10T20:07:25.488Z,1.20
2023-05-10T20:10:00.117Z,1.30
2023-05-10T20:12:49.632Z,1.30
2023-05-10T20:15:22.741Z,1.70
2023-05-10T20:17:56.170Z,1.00
2023-05-10T20:20:27.689Z,1.20
2023-05-10T20:22:58.346Z,1.10
2023-05-10T20:25:31.226Z,0.80
2023-05-10T20:28:05.494Z,0.60
2023-05-10T20:30:36.429Z,1.00
2023-05-10T20:33:06.805Z,0.40
2023-05-10T20:35:37.122Z,0.70
2023-05-10T20:38:08.702Z,0.90
2023-05-10T20:40:39.703Z,0.60
2023-05-10T20:43:10.145Z,0.40
2023-05-10T20:45:40.621Z,0.60
2023-05-10T20:48:10.969Z,0.70
2023-05-10T20:50:44.383Z,0.50
2023-05-10T20:53:21.141Z,0.60
2023-05-10T20:55:51.737Z,0.40
2023-05-10T20:58:22.300Z,0.60
2023-05-10T21:00:52.696Z,0.50
2023-05-10T21:03:22.914Z,0.60
2023-05-10T21:05:53.626Z,0.40
2023-05-10T21:08:24.012Z,0.50
2023-05-10T21:10:55.862Z,0.80
2023-05-10T21:13:26.244Z,0.70
2023-05-10T21:15:57.417Z,0.40
2023-05-10T21:18:30.232Z,0.80
2023-05-10T21:21:06.761Z,0.50
2023-05-10T21:23:37.792Z,0.40
2023-05-10T21:26:13.811Z,0.40
2023-05-10T21:28:47.034Z,0.50
2023-05-10T21:31:18.360Z,0.90
2023-05-10T21:33:49.284Z,0.40
2023-05-10T21:36:24.635Z,0.40
2023-05-10T21:39:04.469Z,0.50
2023-05-10T21:41:38.461Z,0.70
2023-05-10T21:44:11.276Z,0.60
2023-05-10T21:46:43.963Z,0.70
2023-05-10T21:49:16.354Z,1.10
2023-05-10T21:51:48.556Z,0.80
2023-05-10T21:54:19.809Z,0.70
2023-05-10T21:56:50.471Z,0.60
2023-05-10T21:59:22.045Z,0.30
2023-05-10T22:01:54.609Z,0.40
2023-05-10T22:04:25.518Z,0.30
2023-05-10T22:06:56.329Z,0.40
2023-05-10T22:09:28.579Z,0.40
2023-05-10T22:11:59.473Z,0.40
2023-05-10T22:14:30.816Z,0.40
2023-05-10T22:17:01.798Z,0.20
2023-05-10T22:19:32.295Z,0.40
2023-05-10T22:22:03.203Z,0.40
2023-05-10T22:24:33.732Z,0.10
2023-05-10T22:27:06.569Z,0.20
2023-05-10T22:29:40.518Z,0.30
2023-05-10T22:32:15.801Z,0.30
2023-05-10T22:34:46.285Z,0.30
2023-05-10T22:37:17.603Z,0.20
2023-05-10T22:39:48.204Z,0.20
2023-05-10T22:42:18.727Z,0.50
2023-05-10T22:44:48.922Z,0.30
2023-05-10T22:47:19.376Z,0.30
2023-05-10T22:49:49.614Z,0.10
2023-05-10T22:52:19.940Z,0.40
2023-05-10T22:54:50.851Z,0.30
2023-05-10T22:57:21.198Z,0.20
2023-05-10T22:59:52.103Z,0.20
2023-05-10T23:02:23.030Z,0.10
2023-05-10T23:04:54.568Z,0.20
2023-05-10T23:07:25.848Z,0.00
2023-05-10T23:09:56.755Z,0.20
2023-05-10T23:12:27.372Z,0.10
2023-05-10T23:14:57.895Z,0.00
2023-05-10T23:17:28.255Z,0.30
2023-05-10T23:19:59.437Z,0.40
2023-05-10T23:22:30.214Z,0.20
2023-05-10T23:25:01.333Z,0.10
2023-05-10T23:27:35.159Z,0.20
2023-05-10T23:30:07.914Z,0.10
2023-05-10T23:32:39.440Z,0.10
2023-05-10T23:35:12.129Z,0.20
2023-05-10T23:37:43.041Z,0.20
2023-05-10T23:40:15.398Z,0.30
2023-05-10T23:42:46.409Z,0.10
2023-05-10T23:45:16.770Z,0.10
2023-05-10T23:47:47.175Z,0.00
2023-05-10T23:50:18.164Z,0.20
2023-05-10T23:52:48.803Z,0.10
2023-05-10T23:55:19.350Z,0.20
2023-05-10T23:57:49.823Z,0.20
